SBPG/PNG METAR and TAF weather

Enter ICAO airport designator
Station Type Date Time Source
SBPG METAR 2020/04/01 15:00 UTC NOAA

SBPG 011500Z 11002KT 9999 SCT030 27/18 Q1019


Station Type Date Time Source
SBPG Decoded METAR 2020/04/01 15:00 UTC NOAA

Paranagua, Brazil (SBPG) 25-31S 048-31W
Apr 01, 2020 - 11:00 AM EDT / 2020.04.01 1500 UTC
Wind: from the ESE (110 degrees) at 2 MPH (2 KT):0
Visibility: greater than 7 mile(s):0
Sky conditions: partly cloudy
Temperature: 80 F (27 C)
Dew Point: 64 F (18 C)
Relative Humidity: 57%
Pressure (altimeter): 30.09 in. Hg (1019 hPa)
ob: SBPG 011500Z 11002KT 9999 SCT030 27/18 Q1019
cycle: 15

Station Type Date Time Source
SBPG TAF UTC NOAA

Error!

Example: see airport list